sensor_id;sensor_type;location;lat;lon;timestamp;P1;durP1;ratioP1;P2;durP2;ratioP2
57241;SDS011;43095;53.302;5.786;2022-11-30T00:01:16;21.08;;;14.90;;
57241;SDS011;43095;53.302;5.786;2022-11-30T00:03:43;18.13;;;12.68;;
57241;SDS011;43095;53.302;5.786;2022-11-30T00:06:12;18.67;;;13.57;;
57241;SDS011;43095;53.302;5.786;2022-11-30T00:08:40;21.10;;;14.80;;
57241;SDS011;43095;53.302;5.786;2022-11-30T00:13:39;19.98;;;14.68;;
57241;SDS011;43095;53.302;5.786;2022-11-30T00:16:07;19.08;;;13.70;;
57241;SDS011;43095;53.302;5.786;2022-11-30T00:18:35;21.67;;;15.25;;
57241;SDS011;43095;53.302;5.786;2022-11-30T00:21:04;20.40;;;14.27;;
57241;SDS011;43095;53.302;5.786;2022-11-30T00:23:35;21.88;;;15.20;;
57241;SDS011;43095;53.302;5.786;2022-11-30T00:26:04;19.15;;;14.82;;
57241;SDS011;43095;53.302;5.786;2022-11-30T00:28:34;28.77;;;17.75;;
57241;SDS011;43095;53.302;5.786;2022-11-30T00:31:02;20.98;;;15.43;;
57241;SDS011;43095;53.302;5.786;2022-11-30T00:33:35;21.40;;;15.10;;
57241;SDS011;43095;53.302;5.786;2022-11-30T00:36:04;23.65;;;16.42;;
57241;SDS011;43095;53.302;5.786;2022-11-30T00:38:37;21.90;;;14.65;;
57241;SDS011;43095;53.302;5.786;2022-11-30T00:41:04;31.85;;;15.80;;
57241;SDS011;43095;53.302;5.786;2022-11-30T00:43:33;19.02;;;12.68;;
57241;SDS011;43095;53.302;5.786;2022-11-30T00:46:00;18.83;;;12.40;;
57241;SDS011;43095;53.302;5.786;2022-11-30T00:48:27;14.95;;;11.35;;
57241;SDS011;43095;53.302;5.786;2022-11-30T00:50:54;15.68;;;11.90;;
57241;SDS011;43095;53.302;5.786;2022-11-30T00:53:21;15.85;;;11.57;;
57241;SDS011;43095;53.302;5.786;2022-11-30T00:55:48;19.13;;;15.50;;
57241;SDS011;43095;53.302;5.786;2022-11-30T00:58:15;21.63;;;16.27;;
57241;SDS011;43095;53.302;5.786;2022-11-30T01:00:43;24.90;;;16.50;;
57241;SDS011;43095;53.302;5.786;2022-11-30T01:03:10;22.08;;;15.50;;
57241;SDS011;43095;53.302;5.786;2022-11-30T01:05:38;24.23;;;15.93;;
57241;SDS011;43095;53.302;5.786;2022-11-30T01:08:06;28.33;;;18.48;;
57241;SDS011;43095;53.302;5.786;2022-11-30T01:10:35;28.15;;;17.55;;
57241;SDS011;43095;53.302;5.786;2022-11-30T01:13:06;27.33;;;18.35;;
57241;SDS011;43095;53.302;5.786;2022-11-30T01:15:38;34.03;;;20.50;;
57241;SDS011;43095;53.302;5.786;2022-11-30T01:18:10;28.35;;;18.30;;
57241;SDS011;43095;53.302;5.786;2022-11-30T01:20:40;27.20;;;18.88;;
57241;SDS011;43095;53.302;5.786;2022-11-30T01:23:08;28.90;;;19.27;;
57241;SDS011;43095;53.302;5.786;2022-11-30T01:25:36;31.83;;;21.38;;
57241;SDS011;43095;53.302;5.786;2022-11-30T01:28:03;32.63;;;21.95;;
57241;SDS011;43095;53.302;5.786;2022-11-30T01:30:31;34.05;;;19.23;;
57241;SDS011;43095;53.302;5.786;2022-11-30T01:33:02;29.35;;;18.10;;
57241;SDS011;43095;53.302;5.786;2022-11-30T01:35:30;30.88;;;19.45;;
57241;SDS011;43095;53.302;5.786;2022-11-30T01:37:57;23.75;;;17.05;;
57241;SDS011;43095;53.302;5.786;2022-11-30T01:40:24;25.38;;;17.63;;
57241;SDS011;43095;53.302;5.786;2022-11-30T01:42:51;23.70;;;16.27;;
57241;SDS011;43095;53.302;5.786;2022-11-30T01:45:18;27.83;;;17.08;;
57241;SDS011;43095;53.302;5.786;2022-11-30T01:47:46;29.10;;;17.65;;
57241;SDS011;43095;53.302;5.786;2022-11-30T01:50:31;27.25;;;16.98;;
57241;SDS011;43095;53.302;5.786;2022-11-30T01:53:00;32.17;;;19.10;;
57241;SDS011;43095;53.302;5.786;2022-11-30T01:55:36;26.92;;;16.88;;
57241;SDS011;43095;53.302;5.786;2022-11-30T01:58:23;21.33;;;14.90;;
57241;SDS011;43095;53.302;5.786;2022-11-30T02:00:53;18.20;;;13.18;;
57241;SDS011;43095;53.302;5.786;2022-11-30T02:06:10;15.95;;;12.45;;
57241;SDS011;43095;53.302;5.786;2022-11-30T02:08:37;18.10;;;13.70;;
57241;SDS011;43095;53.302;5.786;2022-11-30T02:11:05;21.30;;;14.95;;
57241;SDS011;43095;53.302;5.786;2022-11-30T02:16:34;28.52;;;18.90;;
57241;SDS011;43095;53.302;5.786;2022-11-30T02:24:57;19.60;;;13.70;;
57241;SDS011;43095;53.302;5.786;2022-11-30T02:30:00;17.42;;;12.52;;
57241;SDS011;43095;53.302;5.786;2022-11-30T02:32:39;19.75;;;14.48;;
57241;SDS011;43095;53.302;5.786;2022-11-30T02:35:13;21.63;;;16.60;;
57241;SDS011;43095;53.302;5.786;2022-11-30T02:37:44;20.90;;;15.45;;
57241;SDS011;43095;53.302;5.786;2022-11-30T02:40:13;21.95;;;14.27;;
57241;SDS011;43095;53.302;5.786;2022-11-30T02:42:43;25.55;;;16.45;;
57241;SDS011;43095;53.302;5.786;2022-11-30T02:45:11;22.88;;;15.20;;
57241;SDS011;43095;53.302;5.786;2022-11-30T02:50:38;22.50;;;15.20;;
57241;SDS011;43095;53.302;5.786;2022-11-30T02:53:09;23.88;;;15.90;;
57241;SDS011;43095;53.302;5.786;2022-11-30T02:55:39;21.17;;;15.70;;
57241;SDS011;43095;53.302;5.786;2022-11-30T02:58:06;20.05;;;14.32;;
57241;SDS011;43095;53.302;5.786;2022-11-30T03:00:34;23.45;;;14.10;;
57241;SDS011;43095;53.302;5.786;2022-11-30T03:03:01;17.77;;;13.13;;
57241;SDS011;43095;53.302;5.786;2022-11-30T03:05:29;15.75;;;11.43;;
57241;SDS011;43095;53.302;5.786;2022-11-30T03:07:56;19.92;;;13.57;;
57241;SDS011;43095;53.302;5.786;2022-11-30T03:10:23;19.52;;;13.05;;
57241;SDS011;43095;53.302;5.786;2022-11-30T03:12:50;18.45;;;13.02;;
57241;SDS011;43095;53.302;5.786;2022-11-30T03:15:18;16.48;;;12.48;;
57241;SDS011;43095;53.302;5.786;2022-11-30T03:17:45;18.67;;;12.90;;
57241;SDS011;43095;53.302;5.786;2022-11-30T03:20:12;18.77;;;12.52;;
57241;SDS011;43095;53.302;5.786;2022-11-30T03:22:40;26.40;;;16.85;;
57241;SDS011;43095;53.302;5.786;2022-11-30T03:25:07;28.55;;;18.58;;
57241;SDS011;43095;53.302;5.786;2022-11-30T03:27:34;25.17;;;17.25;;
57241;SDS011;43095;53.302;5.786;2022-11-30T03:30:01;27.50;;;18.23;;
57241;SDS011;43095;53.302;5.786;2022-11-30T03:32:29;25.70;;;17.73;;
57241;SDS011;43095;53.302;5.786;2022-11-30T03:34:56;28.45;;;21.08;;
57241;SDS011;43095;53.302;5.786;2022-11-30T03:37:23;25.90;;;17.65;;
57241;SDS011;43095;53.302;5.786;2022-11-30T03:39:50;26.52;;;18.23;;
57241;SDS011;43095;53.302;5.786;2022-11-30T03:44:50;28.52;;;19.73;;
57241;SDS011;43095;53.302;5.786;2022-11-30T03:47:17;28.88;;;18.73;;
57241;SDS011;43095;53.302;5.786;2022-11-30T03:49:44;24.40;;;15.70;;
57241;SDS011;43095;53.302;5.786;2022-11-30T03:52:11;24.27;;;15.75;;
57241;SDS011;43095;53.302;5.786;2022-11-30T03:54:38;21.27;;;15.30;;
57241;SDS011;43095;53.302;5.786;2022-11-30T03:57:05;24.33;;;16.15;;
57241;SDS011;43095;53.302;5.786;2022-11-30T03:59:32;23.50;;;17.08;;
57241;SDS011;43095;53.302;5.786;2022-11-30T04:01:59;26.95;;;18.13;;
57241;SDS011;43095;53.302;5.786;2022-11-30T04:04:26;35.83;;;22.38;;
57241;SDS011;43095;53.302;5.786;2022-11-30T04:06:54;27.67;;;17.67;;
57241;SDS011;43095;53.302;5.786;2022-11-30T04:09:21;27.23;;;18.17;;
57241;SDS011;43095;53.302;5.786;2022-11-30T04:11:48;26.42;;;18.25;;
57241;SDS011;43095;53.302;5.786;2022-11-30T04:14:15;29.48;;;18.58;;
57241;SDS011;43095;53.302;5.786;2022-11-30T04:16:42;33.65;;;20.17;;
57241;SDS011;43095;53.302;5.786;2022-11-30T04:19:09;29.90;;;18.73;;
57241;SDS011;43095;53.302;5.786;2022-11-30T04:21:37;28.70;;;19.02;;
57241;SDS011;43095;53.302;5.786;2022-11-30T04:24:05;28.00;;;19.30;;
57241;SDS011;43095;53.302;5.786;2022-11-30T04:26:32;30.77;;;19.45;;
57241;SDS011;43095;53.302;5.786;2022-11-30T04:28:59;34.88;;;21.90;;
57241;SDS011;43095;53.302;5.786;2022-11-30T04:31:30;28.92;;;18.35;;
57241;SDS011;43095;53.302;5.786;2022-11-30T04:33:57;26.02;;;17.70;;
57241;SDS011;43095;53.302;5.786;2022-11-30T04:36:24;31.92;;;20.80;;
57241;SDS011;43095;53.302;5.786;2022-11-30T04:38:51;31.92;;;20.15;;
57241;SDS011;43095;53.302;5.786;2022-11-30T04:41:18;29.40;;;19.08;;
57241;SDS011;43095;53.302;5.786;2022-11-30T04:43:45;26.58;;;18.02;;
57241;SDS011;43095;53.302;5.786;2022-11-30T04:46:12;32.25;;;19.73;;
57241;SDS011;43095;53.302;5.786;2022-11-30T04:48:40;32.42;;;19.02;;
57241;SDS011;43095;53.302;5.786;2022-11-30T04:51:07;30.23;;;17.23;;
57241;SDS011;43095;53.302;5.786;2022-11-30T04:53:35;37.05;;;20.10;;
57241;SDS011;43095;53.302;5.786;2022-11-30T04:56:07;28.50;;;17.73;;
57241;SDS011;43095;53.302;5.786;2022-11-30T04:58:35;25.58;;;15.95;;
57241;SDS011;43095;53.302;5.786;2022-11-30T05:01:06;23.60;;;14.93;;
57241;SDS011;43095;53.302;5.786;2022-11-30T05:03:33;104.90;;;12.90;;
57241;SDS011;43095;53.302;5.786;2022-11-30T05:06:01;311.95;;;23.27;;
57241;SDS011;43095;53.302;5.786;2022-11-30T05:08:28;20.65;;;7.90;;
57241;SDS011;43095;53.302;5.786;2022-11-30T05:10:56;26.27;;;7.75;;
57241;SDS011;43095;53.302;5.786;2022-11-30T05:13:23;10.52;;;7.15;;
57241;SDS011;43095;53.302;5.786;2022-11-30T05:15:51;16.05;;;8.80;;
57241;SDS011;43095;53.302;5.786;2022-11-30T05:18:21;10.50;;;8.15;;
57241;SDS011;43095;53.302;5.786;2022-11-30T05:20:49;10.30;;;7.88;;
57241;SDS011;43095;53.302;5.786;2022-11-30T05:23:17;12.48;;;8.38;;
57241;SDS011;43095;53.302;5.786;2022-11-30T05:25:45;13.00;;;8.20;;
57241;SDS011;43095;53.302;5.786;2022-11-30T05:28:13;13.00;;;8.73;;
57241;SDS011;43095;53.302;5.786;2022-11-30T05:30:40;11.38;;;8.20;;
57241;SDS011;43095;53.302;5.786;2022-11-30T05:33:08;14.15;;;9.07;;
57241;SDS011;43095;53.302;5.786;2022-11-30T05:35:35;13.05;;;8.95;;
57241;SDS011;43095;53.302;5.786;2022-11-30T05:38:03;16.17;;;9.32;;
57241;SDS011;43095;53.302;5.786;2022-11-30T05:40:30;14.02;;;9.07;;
57241;SDS011;43095;53.302;5.786;2022-11-30T05:42:59;12.10;;;9.10;;
57241;SDS011;43095;53.302;5.786;2022-11-30T05:45:27;11.82;;;8.68;;
57241;SDS011;43095;53.302;5.786;2022-11-30T05:47:55;12.10;;;8.20;;
57241;SDS011;43095;53.302;5.786;2022-11-30T05:50:22;9.57;;;7.65;;
57241;SDS011;43095;53.302;5.786;2022-11-30T05:52:52;11.63;;;8.65;;
57241;SDS011;43095;53.302;5.786;2022-11-30T05:55:22;10.30;;;7.97;;
57241;SDS011;43095;53.302;5.786;2022-11-30T05:57:50;10.70;;;8.32;;
57241;SDS011;43095;53.302;5.786;2022-11-30T06:00:18;10.98;;;8.55;;
57241;SDS011;43095;53.302;5.786;2022-11-30T06:02:46;10.68;;;8.40;;
57241;SDS011;43095;53.302;5.786;2022-11-30T06:05:14;12.80;;;8.32;;
57241;SDS011;43095;53.302;5.786;2022-11-30T06:07:41;15.05;;;10.25;;
57241;SDS011;43095;53.302;5.786;2022-11-30T06:10:08;13.32;;;9.10;;
57241;SDS011;43095;53.302;5.786;2022-11-30T06:12:36;16.98;;;10.75;;
57241;SDS011;43095;53.302;5.786;2022-11-30T06:15:03;15.50;;;11.75;;
57241;SDS011;43095;53.302;5.786;2022-11-30T06:17:30;15.40;;;10.27;;
57241;SDS011;43095;53.302;5.786;2022-11-30T06:19:57;15.80;;;10.93;;
57241;SDS011;43095;53.302;5.786;2022-11-30T06:22:25;13.48;;;9.68;;
57241;SDS011;43095;53.302;5.786;2022-11-30T06:24:52;13.75;;;8.80;;
57241;SDS011;43095;53.302;5.786;2022-11-30T06:27:19;11.05;;;8.43;;
57241;SDS011;43095;53.302;5.786;2022-11-30T06:29:46;11.35;;;8.30;;
57241;SDS011;43095;53.302;5.786;2022-11-30T06:32:13;15.05;;;10.18;;
57241;SDS011;43095;53.302;5.786;2022-11-30T06:34:40;14.30;;;8.65;;
57241;SDS011;43095;53.302;5.786;2022-11-30T06:37:07;25.65;;;10.48;;
57241;SDS011;43095;53.302;5.786;2022-11-30T06:39:34;112.28;;;14.30;;
57241;SDS011;43095;53.302;5.786;2022-11-30T06:42:21;63.47;;;11.95;;
57241;SDS011;43095;53.302;5.786;2022-11-30T06:44:48;81.05;;;12.93;;
57241;SDS011;43095;53.302;5.786;2022-11-30T06:47:15;69.32;;;12.15;;
57241;SDS011;43095;53.302;5.786;2022-11-30T06:49:42;15.05;;;9.68;;
57241;SDS011;43095;53.302;5.786;2022-11-30T06:52:09;10.35;;;7.28;;
57241;SDS011;43095;53.302;5.786;2022-11-30T06:54:36;13.65;;;9.15;;
57241;SDS011;43095;53.302;5.786;2022-11-30T06:57:03;19.60;;;10.20;;
57241;SDS011;43095;53.302;5.786;2022-11-30T06:59:31;15.18;;;10.10;;
57241;SDS011;43095;53.302;5.786;2022-11-30T07:01:58;17.42;;;10.15;;
57241;SDS011;43095;53.302;5.786;2022-11-30T07:04:33;24.95;;;13.45;;
57241;SDS011;43095;53.302;5.786;2022-11-30T07:07:00;16.98;;;10.90;;
57241;SDS011;43095;53.302;5.786;2022-11-30T07:09:27;14.07;;;9.75;;
57241;SDS011;43095;53.302;5.786;2022-11-30T07:11:54;16.48;;;12.23;;
57241;SDS011;43095;53.302;5.786;2022-11-30T07:14:22;18.75;;;11.52;;
57241;SDS011;43095;53.302;5.786;2022-11-30T07:16:49;15.93;;;10.57;;
57241;SDS011;43095;53.302;5.786;2022-11-30T07:19:16;20.70;;;9.80;;
57241;SDS011;43095;53.302;5.786;2022-11-30T07:21:44;18.85;;;9.80;;
57241;SDS011;43095;53.302;5.786;2022-11-30T07:24:11;14.23;;;9.95;;
57241;SDS011;43095;53.302;5.786;2022-11-30T07:26:58;9.73;;;8.05;;
57241;SDS011;43095;53.302;5.786;2022-11-30T07:29:26;19.63;;;9.18;;
57241;SDS011;43095;53.302;5.786;2022-11-30T07:31:54;29.60;;;9.18;;
57241;SDS011;43095;53.302;5.786;2022-11-30T07:34:21;11.45;;;8.73;;
57241;SDS011;43095;53.302;5.786;2022-11-30T07:36:48;10.95;;;7.53;;
57241;SDS011;43095;53.302;5.786;2022-11-30T07:39:15;50.75;;;12.05;;
57241;SDS011;43095;53.302;5.786;2022-11-30T07:41:45;29.98;;;10.98;;
57241;SDS011;43095;53.302;5.786;2022-11-30T07:44:16;17.63;;;11.60;;
57241;SDS011;43095;53.302;5.786;2022-11-30T07:46:43;19.75;;;12.07;;
57241;SDS011;43095;53.302;5.786;2022-11-30T07:49:11;21.15;;;11.45;;
57241;SDS011;43095;53.302;5.786;2022-11-30T07:51:41;14.50;;;9.93;;
57241;SDS011;43095;53.302;5.786;2022-11-30T07:54:08;24.45;;;11.07;;
57241;SDS011;43095;53.302;5.786;2022-11-30T07:56:37;17.45;;;10.35;;
57241;SDS011;43095;53.302;5.786;2022-11-30T07:59:04;14.15;;;10.13;;
57241;SDS011;43095;53.302;5.786;2022-11-30T08:01:32;16.63;;;11.80;;
57241;SDS011;43095;53.302;5.786;2022-11-30T08:03:59;17.73;;;11.80;;
57241;SDS011;43095;53.302;5.786;2022-11-30T08:06:28;17.25;;;12.13;;
57241;SDS011;43095;53.302;5.786;2022-11-30T08:08:57;19.45;;;12.10;;
57241;SDS011;43095;53.302;5.786;2022-11-30T08:11:27;20.25;;;12.07;;
57241;SDS011;43095;53.302;5.786;2022-11-30T08:13:56;29.15;;;17.08;;
57241;SDS011;43095;53.302;5.786;2022-11-30T08:16:24;22.85;;;14.25;;
57241;SDS011;43095;53.302;5.786;2022-11-30T08:18:54;25.65;;;16.90;;
57241;SDS011;43095;53.302;5.786;2022-11-30T08:21:22;32.40;;;19.02;;
57241;SDS011;43095;53.302;5.786;2022-11-30T08:23:50;32.03;;;19.02;;
57241;SDS011;43095;53.302;5.786;2022-11-30T08:28:49;30.60;;;18.75;;
57241;SDS011;43095;53.302;5.786;2022-11-30T08:31:18;29.05;;;18.35;;
57241;SDS011;43095;53.302;5.786;2022-11-30T08:33:47;29.35;;;18.40;;
57241;SDS011;43095;53.302;5.786;2022-11-30T08:36:19;40.28;;;22.23;;
57241;SDS011;43095;53.302;5.786;2022-11-30T08:38:47;28.05;;;17.80;;
57241;SDS011;43095;53.302;5.786;2022-11-30T08:41:15;35.58;;;21.27;;
57241;SDS011;43095;53.302;5.786;2022-11-30T08:43:44;33.33;;;19.58;;
57241;SDS011;43095;53.302;5.786;2022-11-30T08:46:13;30.92;;;20.27;;
57241;SDS011;43095;53.302;5.786;2022-11-30T08:49:02;29.88;;;18.33;;
57241;SDS011;43095;53.302;5.786;2022-11-30T08:51:50;36.30;;;21.05;;
57241;SDS011;43095;53.302;5.786;2022-11-30T08:54:40;27.95;;;18.17;;
57241;SDS011;43095;53.302;5.786;2022-11-30T08:57:12;29.20;;;17.67;;
57241;SDS011;43095;53.302;5.786;2022-11-30T08:59:40;31.27;;;18.58;;
57241;SDS011;43095;53.302;5.786;2022-11-30T09:02:08;29.85;;;18.10;;
57241;SDS011;43095;53.302;5.786;2022-11-30T09:04:37;26.42;;;16.63;;
57241;SDS011;43095;53.302;5.786;2022-11-30T09:07:04;29.52;;;18.23;;
57241;SDS011;43095;53.302;5.786;2022-11-30T09:09:31;35.45;;;20.83;;
57241;SDS011;43095;53.302;5.786;2022-11-30T09:11:58;29.02;;;18.67;;
57241;SDS011;43095;53.302;5.786;2022-11-30T09:14:25;31.17;;;20.77;;
57241;SDS011;43095;53.302;5.786;2022-11-30T09:16:53;33.22;;;20.85;;
57241;SDS011;43095;53.302;5.786;2022-11-30T09:19:20;30.50;;;18.80;;
57241;SDS011;43095;53.302;5.786;2022-11-30T09:21:50;50.00;;;22.40;;
57241;SDS011;43095;53.302;5.786;2022-11-30T09:24:18;26.70;;;16.77;;
57241;SDS011;43095;53.302;5.786;2022-11-30T09:26:46;35.05;;;20.92;;
57241;SDS011;43095;53.302;5.786;2022-11-30T09:29:13;32.20;;;21.00;;
57241;SDS011;43095;53.302;5.786;2022-11-30T09:31:40;41.33;;;24.83;;
57241;SDS011;43095;53.302;5.786;2022-11-30T09:34:08;36.00;;;19.98;;
57241;SDS011;43095;53.302;5.786;2022-11-30T09:36:37;32.55;;;19.30;;
57241;SDS011;43095;53.302;5.786;2022-11-30T09:39:04;38.30;;;22.88;;
57241;SDS011;43095;53.302;5.786;2022-11-30T09:44:35;38.42;;;23.42;;
57241;SDS011;43095;53.302;5.786;2022-11-30T09:50:15;30.75;;;19.23;;
57241;SDS011;43095;53.302;5.786;2022-11-30T09:52:51;40.70;;;22.52;;
57241;SDS011;43095;53.302;5.786;2022-11-30T09:55:42;38.92;;;24.15;;
57241;SDS011;43095;53.302;5.786;2022-11-30T10:00:55;41.03;;;26.13;;
57241;SDS011;43095;53.302;5.786;2022-11-30T10:03:22;43.67;;;27.17;;
57241;SDS011;43095;53.302;5.786;2022-11-30T10:05:58;46.13;;;26.75;;
57241;SDS011;43095;53.302;5.786;2022-11-30T10:08:30;45.13;;;27.45;;
57241;SDS011;43095;53.302;5.786;2022-11-30T10:11:20;47.17;;;28.38;;
57241;SDS011;43095;53.302;5.786;2022-11-30T10:16:58;59.95;;;32.78;;
57241;SDS011;43095;53.302;5.786;2022-11-30T10:27:52;78.78;;;36.22;;
57241;SDS011;43095;53.302;5.786;2022-11-30T10:30:24;66.03;;;34.78;;
57241;SDS011;43095;53.302;5.786;2022-11-30T10:32:56;78.25;;;35.92;;
57241;SDS011;43095;53.302;5.786;2022-11-30T10:38:11;62.80;;;35.70;;
57241;SDS011;43095;53.302;5.786;2022-11-30T10:41:03;53.33;;;32.17;;
57241;SDS011;43095;53.302;5.786;2022-11-30T10:46:39;57.97;;;32.10;;
57241;SDS011;43095;53.302;5.786;2022-11-30T10:49:12;49.05;;;29.33;;
57241;SDS011;43095;53.302;5.786;2022-11-30T10:51:45;55.53;;;30.35;;
57241;SDS011;43095;53.302;5.786;2022-11-30T10:54:17;71.40;;;35.17;;
57241;SDS011;43095;53.302;5.786;2022-11-30T10:56:47;66.80;;;34.15;;
57241;SDS011;43095;53.302;5.786;2022-11-30T10:59:19;64.82;;;31.00;;
57241;SDS011;43095;53.302;5.786;2022-11-30T11:01:53;46.95;;;29.52;;
57241;SDS011;43095;53.302;5.786;2022-11-30T11:04:24;61.00;;;32.25;;
57241;SDS011;43095;53.302;5.786;2022-11-30T11:06:57;64.13;;;32.67;;
57241;SDS011;43095;53.302;5.786;2022-11-30T11:15:06;70.70;;;34.65;;
57241;SDS011;43095;53.302;5.786;2022-11-30T11:17:35;65.32;;;33.40;;
57241;SDS011;43095;53.302;5.786;2022-11-30T11:20:05;65.35;;;32.53;;
57241;SDS011;43095;53.302;5.786;2022-11-30T11:22:55;59.45;;;32.17;;
57241;SDS011;43095;53.302;5.786;2022-11-30T11:28:04;58.63;;;31.90;;
57241;SDS011;43095;53.302;5.786;2022-11-30T11:30:31;68.55;;;35.47;;
57241;SDS011;43095;53.302;5.786;2022-11-30T11:33:21;60.25;;;33.92;;
57241;SDS011;43095;53.302;5.786;2022-11-30T11:38:43;65.15;;;36.05;;
57241;SDS011;43095;53.302;5.786;2022-11-30T11:41:27;58.85;;;32.63;;
57241;SDS011;43095;53.302;5.786;2022-11-30T11:49:47;51.28;;;30.95;;
57241;SDS011;43095;53.302;5.786;2022-11-30T11:52:16;65.80;;;34.05;;
57241;SDS011;43095;53.302;5.786;2022-11-30T11:55:00;52.25;;;29.63;;
57241;SDS011;43095;53.302;5.786;2022-11-30T11:57:34;57.35;;;32.15;;
57241;SDS011;43095;53.302;5.786;2022-11-30T12:00:06;50.47;;;30.05;;
57241;SDS011;43095;53.302;5.786;2022-11-30T12:05:30;52.47;;;30.73;;
57241;SDS011;43095;53.302;5.786;2022-11-30T12:13:22;53.83;;;31.23;;
57241;SDS011;43095;53.302;5.786;2022-11-30T12:16:01;53.72;;;30.45;;
57241;SDS011;43095;53.302;5.786;2022-11-30T12:19:31;51.75;;;29.67;;
57241;SDS011;43095;53.302;5.786;2022-11-30T12:33:44;64.00;;;33.45;;
57241;SDS011;43095;53.302;5.786;2022-11-30T12:39:23;68.40;;;36.50;;
57241;SDS011;43095;53.302;5.786;2022-11-30T12:42:14;66.15;;;35.45;;
57241;SDS011;43095;53.302;5.786;2022-11-30T12:48:01;61.75;;;32.42;;
57241;SDS011;43095;53.302;5.786;2022-11-30T12:50:50;55.67;;;32.50;;
57241;SDS011;43095;53.302;5.786;2022-11-30T12:58:55;55.33;;;33.90;;
57241;SDS011;43095;53.302;5.786;2022-11-30T13:04:48;69.40;;;37.00;;
57241;SDS011;43095;53.302;5.786;2022-11-30T13:07:26;64.40;;;34.67;;
57241;SDS011;43095;53.302;5.786;2022-11-30T13:10:06;68.00;;;35.97;;
57241;SDS011;43095;53.302;5.786;2022-11-30T13:12:46;59.42;;;34.97;;
57241;SDS011;43095;53.302;5.786;2022-11-30T13:15:17;67.78;;;37.30;;
57241;SDS011;43095;53.302;5.786;2022-11-30T13:17:51;62.90;;;36.38;;
57241;SDS011;43095;53.302;5.786;2022-11-30T13:20:36;66.68;;;37.63;;
57241;SDS011;43095;53.302;5.786;2022-11-30T13:36:28;63.55;;;34.22;;
57241;SDS011;43095;53.302;5.786;2022-11-30T13:41:40;59.47;;;35.28;;
57241;SDS011;43095;53.302;5.786;2022-11-30T13:49:57;64.30;;;36.15;;
57241;SDS011;43095;53.302;5.786;2022-11-30T13:58:05;67.00;;;37.38;;
57241;SDS011;43095;53.302;5.786;2022-11-30T14:05:49;63.47;;;38.30;;
57241;SDS011;43095;53.302;5.786;2022-11-30T14:10:51;67.78;;;38.38;;
57241;SDS011;43095;53.302;5.786;2022-11-30T14:13:27;62.33;;;38.65;;
57241;SDS011;43095;53.302;5.786;2022-11-30T14:15:58;66.25;;;39.47;;
57241;SDS011;43095;53.302;5.786;2022-11-30T14:18:32;69.35;;;38.28;;
57241;SDS011;43095;53.302;5.786;2022-11-30T14:23:55;61.92;;;36.80;;
57241;SDS011;43095;53.302;5.786;2022-11-30T14:26:27;60.85;;;37.13;;
57241;SDS011;43095;53.302;5.786;2022-11-30T14:29:08;61.90;;;37.90;;
57241;SDS011;43095;53.302;5.786;2022-11-30T14:31:55;68.40;;;40.38;;
57241;SDS011;43095;53.302;5.786;2022-11-30T14:34:29;64.28;;;40.28;;
57241;SDS011;43095;53.302;5.786;2022-11-30T14:37:02;68.63;;;40.20;;
57241;SDS011;43095;53.302;5.786;2022-11-30T14:40:00;68.85;;;40.72;;
57241;SDS011;43095;53.302;5.786;2022-11-30T14:42:30;68.32;;;42.25;;
57241;SDS011;43095;53.302;5.786;2022-11-30T14:45:01;67.07;;;39.20;;
57241;SDS011;43095;53.302;5.786;2022-11-30T14:47:30;68.07;;;39.85;;
57241;SDS011;43095;53.302;5.786;2022-11-30T14:50:01;61.95;;;38.08;;
57241;SDS011;43095;53.302;5.786;2022-11-30T14:55:31;65.60;;;40.53;;
57241;SDS011;43095;53.302;5.786;2022-11-30T15:00:48;68.47;;;40.75;;
57241;SDS011;43095;53.302;5.786;2022-11-30T15:05:55;56.88;;;36.40;;
57241;SDS011;43095;53.302;5.786;2022-11-30T15:08:27;63.55;;;38.13;;
57241;SDS011;43095;53.302;5.786;2022-11-30T15:11:14;59.47;;;38.35;;
57241;SDS011;43095;53.302;5.786;2022-11-30T15:13:43;64.95;;;40.33;;
57241;SDS011;43095;53.302;5.786;2022-11-30T15:18:51;75.15;;;43.58;;
57241;SDS011;43095;53.302;5.786;2022-11-30T15:21:23;61.45;;;38.22;;
57241;SDS011;43095;53.302;5.786;2022-11-30T15:23:55;60.92;;;36.70;;
57241;SDS011;43095;53.302;5.786;2022-11-30T15:26:32;62.88;;;37.28;;
57241;SDS011;43095;53.302;5.786;2022-11-30T15:29:07;57.95;;;37.22;;
57241;SDS011;43095;53.302;5.786;2022-11-30T15:31:49;64.38;;;38.58;;
57241;SDS011;43095;53.302;5.786;2022-11-30T15:34:19;62.00;;;38.55;;
57241;SDS011;43095;53.302;5.786;2022-11-30T15:36:52;67.05;;;38.70;;
57241;SDS011;43095;53.302;5.786;2022-11-30T15:39:22;65.75;;;39.13;;
57241;SDS011;43095;53.302;5.786;2022-11-30T15:41:54;65.95;;;39.28;;
57241;SDS011;43095;53.302;5.786;2022-11-30T15:44:42;62.33;;;38.88;;
57241;SDS011;43095;53.302;5.786;2022-11-30T15:47:30;59.72;;;37.67;;
57241;SDS011;43095;53.302;5.786;2022-11-30T15:50:01;60.95;;;37.17;;
57241;SDS011;43095;53.302;5.786;2022-11-30T15:52:47;67.47;;;41.63;;
57241;SDS011;43095;53.302;5.786;2022-11-30T15:58:20;60.60;;;38.28;;
57241;SDS011;43095;53.302;5.786;2022-11-30T16:06:25;62.72;;;40.38;;
57241;SDS011;43095;53.302;5.786;2022-11-30T16:09:15;61.30;;;38.80;;
57241;SDS011;43095;53.302;5.786;2022-11-30T16:11:49;65.07;;;39.75;;
57241;SDS011;43095;53.302;5.786;2022-11-30T16:14:19;63.55;;;38.85;;
57241;SDS011;43095;53.302;5.786;2022-11-30T16:16:46;59.72;;;38.13;;
57241;SDS011;43095;53.302;5.786;2022-11-30T16:19:14;64.03;;;38.17;;
57241;SDS011;43095;53.302;5.786;2022-11-30T16:21:41;54.47;;;35.33;;
57241;SDS011;43095;53.302;5.786;2022-11-30T16:24:12;59.78;;;37.45;;
57241;SDS011;43095;53.302;5.786;2022-11-30T16:26:43;59.10;;;37.25;;
57241;SDS011;43095;53.302;5.786;2022-11-30T16:29:18;57.10;;;36.67;;
57241;SDS011;43095;53.302;5.786;2022-11-30T16:31:45;63.45;;;37.50;;
57241;SDS011;43095;53.302;5.786;2022-11-30T16:34:13;57.60;;;36.88;;
57241;SDS011;43095;53.302;5.786;2022-11-30T16:36:40;65.03;;;38.80;;
57241;SDS011;43095;53.302;5.786;2022-11-30T16:39:11;56.70;;;35.80;;
57241;SDS011;43095;53.302;5.786;2022-11-30T16:41:38;60.83;;;37.83;;
57241;SDS011;43095;53.302;5.786;2022-11-30T16:44:10;57.63;;;37.03;;
57241;SDS011;43095;53.302;5.786;2022-11-30T16:46:39;61.47;;;38.05;;
57241;SDS011;43095;53.302;5.786;2022-11-30T16:49:06;68.15;;;42.95;;
57241;SDS011;43095;53.302;5.786;2022-11-30T16:51:34;74.60;;;46.05;;
57241;SDS011;43095;53.302;5.786;2022-11-30T16:54:02;80.57;;;47.40;;
57241;SDS011;43095;53.302;5.786;2022-11-30T16:56:31;77.75;;;43.53;;
57241;SDS011;43095;53.302;5.786;2022-11-30T16:58:59;71.53;;;43.10;;
57241;SDS011;43095;53.302;5.786;2022-11-30T17:01:37;69.43;;;41.55;;
57241;SDS011;43095;53.302;5.786;2022-11-30T17:04:14;71.10;;;40.43;;
57241;SDS011;43095;53.302;5.786;2022-11-30T17:06:48;60.00;;;37.35;;
57241;SDS011;43095;53.302;5.786;2022-11-30T17:09:20;62.22;;;38.22;;
57241;SDS011;43095;53.302;5.786;2022-11-30T17:11:48;66.60;;;39.10;;
57241;SDS011;43095;53.302;5.786;2022-11-30T17:14:17;61.03;;;38.75;;
57241;SDS011;43095;53.302;5.786;2022-11-30T17:16:48;68.53;;;40.38;;
57241;SDS011;43095;53.302;5.786;2022-11-30T17:19:16;61.00;;;37.75;;
57241;SDS011;43095;53.302;5.786;2022-11-30T17:21:49;73.15;;;41.75;;
57241;SDS011;43095;53.302;5.786;2022-11-30T17:24:43;60.60;;;37.83;;